KMSY METAR and TAF | Updated Today

KMSY METAR

Louis Armstrong New Orleans International Airport

Observation time: 7 min. ago

KMSY 301853Z VRB04KT 10SM FEW250 19/06 A3021 RMK AO2 SLP231 T01940056

Need help? Read our tutorial on how to read METARs or read the parsed version below.

Louis Armstrong New Orleans International Airport (KMSY) METAR

  • Weather conditions on Tue, 30 Nov 2021 18:53:00 +0000 (7 min. ago):
  • Present conditions: Dry
  • Clouds: A few at 7620 meters
  • Visibility: 16093 meters
  • Wind: Variable at 4 knots
  • Temperature: 19 celsius
  • Dew point: 6 celsius
  • Pressure: 30.21 inHg
  • Remarks: AO2 SLP231 T01940056


Useful to know...

KMSY TAF

Louis Armstrong New Orleans International Airport

KMSY 301735Z 3018/0124 00000KT P6SM SKC
Observation time: 85 min. ago
Need help? Read our tutorial on how to read TAFs or read the parsed version below.

Parsed version of TAF for Louis Armstrong New Orleans International Airport (KMSY)

  • From 30 November at 18:00 UTC, to day 01 of the month at 24:00 UTC
  • Clouds: No significant changes expected

Airports near KMSY

KHUM Weather
Region: Houma

Houma Terrebonne Airport

Not found in our database